Lamberton, Minnesota
Current Conditions -  °F | °C
As of 7:33 PM on Sunday 23 Nov 2014 (Local Time) from KTKC Reporting Station
Overcast Overcast  
Wind Chill: 22°   Ceiling: 2500
Heat Index: 33°   Visibility: 10mi
Dew Point: 28°   Wind: 18mph
Humidity: 81%   Direction: 320°NW
Pressure: 29.49"   Gusts: 26mph
Location:  44.23°N, 95.26°W
Report Text: KTKC 240133Z AUTO 32016G23KT 10SM BKN025 OVC032 01/M02 A2949 RMK AO2 T00081022
Loading
Personal Weather Stations






























Interactive Weather Map New forecast layout! Learn more

10-Day Weather Forecast

Advertisements
Track Severe Weather on mobile